Time;durP1;ratioP1;P1;durP2;ratioP2;P2;SDS_P1;SDS_P2;PMS_P1;PMS_P2;Temp;Humidity;BMP_temperature;BMP_pressure;BME280_temperature;BME280_humidity;BME280_pressure;Samples;Min_cycle;Max_cycle;Signal;HPM_P1;HPM_P2
2021/03/30 00:00:33;;;;;;;8.68;3.35;;;17.40;43.50;;;;;;6237381;28;20033;-76
2021/03/30 00:03:35;;;;;;;4.72;2.72;;;17.40;43.10;;;;;;6269939;28;20211;-76
2021/03/30 00:06:36;;;;;;;6.05;2.92;;;17.30;43.20;;;;;;6271501;28;20021;-76
2021/03/30 00:09:37;;;;;;;8.93;3.08;;;17.20;43.40;;;;;;6237298;28;20363;-75
2021/03/30 00:12:38;;;;;;;4.45;2.40;;;17.20;43.60;;;;;;6254091;28;20041;-75
2021/03/30 00:15:39;;;;;;;4.15;2.40;;;17.20;43.60;;;;;;6274538;28;20098;-75
2021/03/30 00:18:40;;;;;;;4.55;2.70;;;17.10;43.60;;;;;;6254577;28;20034;-76
2021/03/30 00:21:40;;;;;;;8.98;2.72;;;17.10;43.60;;;;;;6260550;28;20366;-75
2021/03/30 00:24:41;;;;;;;6.47;2.70;;;17.00;43.50;;;;;;6260491;28;20028;-75
2021/03/30 00:27:42;;;;;;;5.53;2.47;;;17.00;43.60;;;;;;6270550;28;20056;-76
2021/03/30 00:30:43;;;;;;;6.25;2.70;;;17.00;43.70;;;;;;6277245;28;20462;-76
2021/03/30 00:33:44;;;;;;;8.30;2.72;;;17.00;43.90;;;;;;6258887;28;20085;-74
2021/03/30 00:36:45;;;;;;;6.45;2.72;;;16.90;43.90;;;;;;6269905;28;20029;-74
2021/03/30 00:39:46;;;;;;;4.63;2.40;;;17.00;44.00;;;;;;6271193;28;20106;-75
2021/03/30 00:42:48;;;;;;;4.22;2.42;;;17.00;44.00;;;;;;6255016;28;20403;-75
2021/03/30 00:45:51;;;;;;;4.22;2.53;;;17.00;44.10;;;;;;6288175;28;20507;-75
2021/03/30 00:48:52;;;;;;;7.82;2.92;;;16.90;44.20;;;;;;6250215;28;20072;-75
2021/03/30 00:51:54;;;;;;;9.93;3.08;;;16.90;44.40;;;;;;6252472;28;20041;-75
2021/03/30 00:55:15;;;;;;;5.97;3.22;;;16.90;44.70;;;;;;6265983;28;20036;-75
2021/03/30 00:58:20;;;;;;;5.80;2.88;;;16.80;44.60;;;;;;6250361;28;20039;-75
2021/03/30 01:01:21;;;;;;;6.15;3.42;;;16.80;44.80;;;;;;6250966;28;20104;-75
2021/03/30 01:04:22;;;;;;;6.80;3.45;;;16.80;45.60;;;;;;6252552;28;20029;-75
2021/03/30 01:07:23;;;;;;;5.90;3.10;;;16.80;45.10;;;;;;6260901;28;20498;-75
2021/03/30 01:10:32;;;;;;;7.38;3.17;;;16.80;45.30;;;;;;6269969;28;20663;-74
2021/03/30 01:13:56;;;;;;;12.38;2.75;;;16.70;45.60;;;;;;6276287;28;20457;-74
2021/03/30 01:17:25;;;;;;;8.45;3.25;;;16.70;45.80;;;;;;6276491;28;20033;-75
2021/03/30 01:20:47;;;;;;;5.40;3.30;;;16.60;45.90;;;;;;6270371;28;20040;-76
2021/03/30 01:24:15;;;;;;;5.10;2.88;;;16.60;46.20;;;;;;6251220;28;20114;-75
2021/03/30 01:27:34;;;;;;;8.15;2.78;;;16.50;46.50;;;;;;6252278;28;20647;-75
2021/03/30 01:30:37;;;;;;;5.00;2.65;;;16.50;46.60;;;;;;6273034;28;20036;-74
2021/03/30 01:33:39;;;;;;;5.97;2.88;;;16.40;46.70;;;;;;6291928;28;20090;-74
2021/03/30 01:36:43;;;;;;;7.38;3.50;;;16.40;47.00;;;;;;6252023;28;20094;-74
2021/03/30 01:39:52;;;;;;;5.40;3.00;;;16.30;47.20;;;;;;6269516;28;20029;-75
2021/03/30 01:42:55;;;;;;;14.00;3.85;;;16.30;47.40;;;;;;6269389;28;20039;-74
2021/03/30 01:45:57;;;;;;;7.10;4.00;;;16.30;47.50;;;;;;6252459;28;20048;-74
2021/03/30 01:48:59;;;;;;;5.38;2.75;;;16.20;47.50;;;;;;6259716;28;20111;-74
2021/03/30 01:52:00;;;;;;;5.07;3.00;;;16.20;47.60;;;;;;6259680;28;20633;-75
2021/03/30 01:55:02;;;;;;;5.47;3.08;;;16.20;47.50;;;;;;6287150;28;20052;-76
2021/03/30 01:58:04;;;;;;;8.55;2.70;;;16.20;47.50;;;;;;6258895;28;20036;-76
2021/03/30 02:01:06;;;;;;;8.15;2.70;;;16.20;47.50;;;;;;6275733;28;20024;-74
2021/03/30 02:04:08;;;;;;;7.30;2.85;;;16.20;47.40;;;;;;6270493;28;20061;-75
2021/03/30 02:07:09;;;;;;;8.45;2.95;;;16.20;47.40;;;;;;6275673;28;20044;-75
2021/03/30 02:10:17;;;;;;;4.40;2.40;;;16.10;47.20;;;;;;6262753;28;20033;-75
2021/03/30 02:13:27;;;;;;;5.75;2.38;;;16.10;47.10;;;;;;6252361;28;20439;-75
2021/03/30 02:16:40;;;;;;;4.55;2.40;;;16.20;46.90;;;;;;6268920;28;20056;-75
2021/03/30 02:20:07;;;;;;;5.85;2.78;;;16.10;46.70;;;;;;6252185;28;20655;-75
2021/03/30 02:23:27;;;;;;;11.57;3.88;;;16.10;46.80;;;;;;6258780;28;20035;-75
2021/03/30 02:26:34;;;;;;;6.00;3.03;;;16.10;47.10;;;;;;6233627;28;20507;-75
2021/03/30 02:29:36;;;;;;;8.98;3.55;;;16.10;47.30;;;;;;6261768;28;20479;-75
2021/03/30 02:32:39;;;;;;;7.18;3.03;;;16.00;47.40;;;;;;6254337;28;20071;-75
2021/03/30 02:35:42;;;;;;;6.50;3.25;;;16.00;47.60;;;;;;6280310;28;20039;-74
2021/03/30 02:38:43;;;;;;;5.97;3.08;;;16.00;47.90;;;;;;6274236;28;20064;-75
2021/03/30 02:41:45;;;;;;;3.50;2.58;;;15.90;47.90;;;;;;6273158;28;20528;-75
2021/03/30 02:44:49;;;;;;;5.50;2.85;;;15.90;47.70;;;;;;6297656;28;20016;-75
2021/03/30 02:47:51;;;;;;;5.90;3.00;;;15.90;47.60;;;;;;6257644;28;20568;-75
2021/03/30 02:50:52;;;;;;;4.88;2.92;;;15.90;48.20;;;;;;6274408;28;20079;-75
2021/03/30 02:53:56;;;;;;;10.35;2.72;;;15.90;47.80;;;;;;6289346;28;20137;-75
2021/03/30 02:57:01;;;;;;;4.10;2.15;;;15.80;47.70;;;;;;6297305;28;20082;-74
2021/03/30 03:00:03;;;;;;;8.90;2.53;;;15.80;47.70;;;;;;6296490;28;20077;-74
2021/03/30 03:03:05;;;;;;;13.70;2.67;;;15.80;47.40;;;;;;6279709;28;20633;-75
2021/03/30 03:06:06;;;;;;;7.03;2.60;;;15.80;47.60;;;;;;6242341;28;20043;-75
2021/03/30 03:09:08;;;;;;;6.80;2.53;;;15.70;47.90;;;;;;6275799;28;20029;-75
2021/03/30 03:12:11;;;;;;;5.35;2.65;;;15.70;48.40;;;;;;6238995;28;20032;-74
2021/03/30 03:15:14;;;;;;;8.65;2.70;;;15.60;48.70;;;;;;6238667;28;20029;-75
2021/03/30 03:18:16;;;;;;;8.30;2.78;;;15.50;48.90;;;;;;6271509;28;20059;-75
2021/03/30 03:21:17;;;;;;;5.35;2.70;;;15.40;49.20;;;;;;6255322;28;20104;-75
2021/03/30 03:24:20;;;;;;;7.10;3.13;;;15.40;49.40;;;;;;6289377;28;20458;-75
2021/03/30 03:27:21;;;;;;;11.18;2.60;;;15.30;49.80;;;;;;6261995;28;20451;-75
2021/03/30 03:30:24;;;;;;;5.32;2.83;;;15.20;50.00;;;;;;6278584;28;20035;-75
2021/03/30 03:33:28;;;;;;;4.60;2.50;;;15.10;50.20;;;;;;6232162;28;20114;-74
2021/03/30 03:36:40;;;;;;;6.47;2.85;;;15.00;50.40;;;;;;6261844;28;20639;-75
2021/03/30 03:39:40;;;;;;;5.32;2.50;;;15.00;50.80;;;;;;6278168;28;20032;-74
2021/03/30 03:42:41;;;;;;;4.50;2.63;;;14.90;50.90;;;;;;6262428;28;20367;-75
2021/03/30 03:45:42;;;;;;;6.10;2.97;;;14.80;51.00;;;;;;6249837;28;20115;-75
2021/03/30 03:48:44;;;;;;;7.20;2.95;;;14.80;51.10;;;;;;6221871;28;20438;-75
2021/03/30 03:51:56;;;;;;;6.07;2.88;;;14.80;51.30;;;;;;6267151;28;20570;-75
2021/03/30 03:54:58;;;;;;;11.45;3.20;;;14.80;51.20;;;;;;6254393;28;20274;-74
2021/03/30 03:58:05;;;;;;;7.38;2.78;;;14.80;51.20;;;;;;6278191;28;20040;-75
2021/03/30 04:01:17;;;;;;;12.23;3.03;;;14.80;51.00;;;;;;6278417;28;20027;-75
2021/03/30 04:04:41;;;;;;;9.10;2.67;;;14.90;50.90;;;;;;6239118;28;20033;-74
2021/03/30 04:08:03;;;;;;;6.53;3.53;;;14.90;50.80;;;;;;6270075;28;20105;-75
2021/03/30 04:11:05;;;;;;;4.80;2.75;;;14.90;50.80;;;;;;6254025;28;20037;-75
2021/03/30 04:14:07;;;;;;;6.00;2.78;;;14.80;50.70;;;;;;6271011;28;20032;-76
2021/03/30 04:17:08;;;;;;;7.82;2.80;;;14.90;50.70;;;;;;6237449;28;20439;-74
2021/03/30 04:20:11;;;;;;;8.60;3.10;;;14.90;50.50;;;;;;6283172;28;20103;-74
2021/03/30 04:23:13;;;;;;;7.60;3.20;;;14.90;50.40;;;;;;6260932;28;20033;-76
2021/03/30 04:26:14;;;;;;;4.93;2.85;;;14.90;50.40;;;;;;6247978;28;20033;-74
2021/03/30 04:29:15;;;;;;;7.43;2.90;;;14.90;50.10;;;;;;6241897;28;20451;-74
2021/03/30 04:32:16;;;;;;;5.35;3.05;;;14.90;50.30;;;;;;6241105;28;20646;-74
2021/03/30 04:35:17;;;;;;;6.63;3.17;;;14.90;50.20;;;;;;6281097;28;20057;-74
2021/03/30 04:38:18;;;;;;;10.55;3.13;;;14.90;50.30;;;;;;6252853;28;20044;-74
2021/03/30 04:41:19;;;;;;;6.13;2.90;;;14.90;50.30;;;;;;6276938;28;20020;-75
2021/03/30 04:44:19;;;;;;;7.30;3.67;;;14.90;50.30;;;;;;6273455;28;20024;-75
2021/03/30 04:47:21;;;;;;;9.73;3.20;;;14.90;50.60;;;;;;6276741;28;20081;-75
2021/03/30 04:50:23;;;;;;;5.97;3.35;;;14.80;50.80;;;;;;6255283;28;20028;-76
2021/03/30 04:53:24;;;;;;;5.97;3.45;;;14.70;51.00;;;;;;6275924;28;20128;-75
2021/03/30 04:56:25;;;;;;;5.78;2.78;;;14.60;51.10;;;;;;6261005;28;20029;-75
2021/03/30 04:59:26;;;;;;;5.82;2.83;;;14.50;51.30;;;;;;6269353;28;20061;-76
2021/03/30 05:02:27;;;;;;;5.13;3.13;;;14.40;51.50;;;;;;6253149;28;20045;-75
2021/03/30 05:05:28;;;;;;;5.22;2.75;;;14.30;51.60;;;;;;6274995;28;20017;-75
2021/03/30 05:08:29;;;;;;;6.32;3.20;;;14.30;51.70;;;;;;6259379;28;20505;-75
2021/03/30 05:11:30;;;;;;;8.98;3.75;;;14.30;51.80;;;;;;6238612;28;20037;-76
2021/03/30 05:14:31;;;;;;;9.45;3.33;;;14.20;51.80;;;;;;6260798;28;20056;-75
2021/03/30 05:17:32;;;;;;;7.28;3.17;;;14.20;51.90;;;;;;6251765;28;20447;-75
2021/03/30 05:20:33;;;;;;;8.05;3.65;;;14.10;52.00;;;;;;6252330;28;20029;-75
2021/03/30 05:23:34;;;;;;;11.05;3.63;;;14.10;52.00;;;;;;6270395;28;20025;-76
2021/03/30 05:26:35;;;;;;;9.13;3.65;;;14.10;52.00;;;;;;6269631;28;20024;-76
2021/03/30 05:29:45;;;;;;;10.18;3.17;;;14.10;52.00;;;;;;6274377;28;20050;-76
2021/03/30 05:32:46;;;;;;;7.50;3.08;;;14.10;51.90;;;;;;6275796;28;20032;-75
2021/03/30 05:35:47;;;;;;;6.28;2.83;;;14.10;51.80;;;;;;6257926;28;20044;-77
2021/03/30 05:38:50;;;;;;;6.50;2.83;;;14.10;51.80;;;;;;6251701;28;20448;-74
2021/03/30 05:41:51;;;;;;;6.20;3.20;;;14.10;51.70;;;;;;6269503;28;20021;-74
2021/03/30 05:44:53;;;;;;;12.40;3.40;;;14.10;51.80;;;;;;6269414;28;20021;-74
2021/03/30 05:47:55;;;;;;;8.15;3.03;;;14.20;51.80;;;;;;6235155;28;20443;-75
2021/03/30 05:50:57;;;;;;;11.10;3.20;;;14.20;51.70;;;;;;6275317;28;20145;-72
2021/03/30 05:54:00;;;;;;;6.97;3.38;;;14.20;52.30;;;;;;6273115;28;20029;-73
2021/03/30 05:57:03;;;;;;;7.40;3.33;;;14.20;51.60;;;;;;6268220;28;20059;-74
2021/03/30 06:00:07;;;;;;;6.32;3.85;;;14.20;51.60;;;;;;6270749;28;20036;-73
2021/03/30 06:03:27;;;;;;;7.05;2.90;;;14.20;51.60;;;;;;6264181;28;20049;-74
2021/03/30 06:06:29;;;;;;;8.50;3.63;;;14.20;51.50;;;;;;6253560;28;20325;-76
2021/03/30 06:09:29;;;;;;;9.35;4.30;;;14.10;51.60;;;;;;6281268;28;20041;-74
2021/03/30 06:12:30;;;;;;;10.55;3.50;;;14.10;51.70;;;;;;6300740;28;20565;-73
2021/03/30 06:15:34;;;;;;;7.47;3.50;;;14.00;51.90;;;;;;6250178;28;20059;-74
2021/03/30 06:18:35;;;;;;;10.07;3.20;;;14.10;52.10;;;;;;6299396;28;20406;-74
2021/03/30 06:22:01;;;;;;;5.65;3.10;;;14.00;52.10;;;;;;6300753;28;20025;-77
2021/03/30 06:25:02;;;;;;;13.40;3.60;;;14.00;52.10;;;;;;6267351;28;20075;-73
2021/03/30 06:28:27;;;;;;;5.55;3.28;;;14.10;52.10;;;;;;6296450;28;20024;-73
2021/03/30 06:31:28;;;;;;;13.00;3.13;;;14.10;51.90;;;;;;6178150;28;20072;-74
2021/03/30 06:34:30;;;;;;;9.18;2.97;;;14.10;51.70;;;;;;6180924;28;20123;-74
2021/03/30 06:37:33;;;;;;;6.78;3.30;;;14.20;51.70;;;;;;6198873;28;20041;-74
2021/03/30 06:40:37;;;;;;;8.50;3.58;;;14.20;51.80;;;;;;6162180;28;20039;-74
2021/03/30 06:47:01;;;;;;;9.40;3.45;;;14.20;51.80;;;;;;6175231;28;20128;-76
2021/03/30 06:50:16;;;;;;;8.50;3.60;;;14.30;51.80;;;;;;6159102;28;20047;-73
2021/03/30 06:53:18;;;;;;;11.27;3.58;;;14.30;51.80;;;;;;6154250;28;20033;-73
2021/03/30 06:56:21;;;;;;;9.38;3.47;;;14.40;51.60;;;;;;6162251;28;20043;-72
2021/03/30 06:59:23;;;;;;;14.57;5.47;;;14.50;51.30;;;;;;6169065;28;20167;-73
2021/03/30 07:02:28;;;;;;;11.15;3.60;;;14.50;51.00;;;;;;6159495;28;20121;-73
2021/03/30 07:05:37;;;;;;;9.32;3.60;;;14.60;50.90;;;;;;6183833;28;20488;-75
2021/03/30 07:08:40;;;;;;;9.65;3.63;;;14.60;50.50;;;;;;6228975;28;20029;-74
2021/03/30 07:16:17;;;;;;;8.65;2.85;;;14.70;50.10;;;;;;6273925;28;20422;-74
2021/03/30 07:19:23;;;;;;;6.50;3.47;;;14.80;50.00;;;;;;6274924;28;20048;-74
2021/03/30 07:22:27;;;;;;;9.48;3.30;;;14.80;50.00;;;;;;6247899;28;20463;-74
2021/03/30 07:25:29;;;;;;;11.68;3.25;;;14.90;50.00;;;;;;6276359;28;20028;-74
2021/03/30 07:28:34;;;;;;;7.32;3.35;;;15.00;49.90;;;;;;6295243;28;20032;-74
2021/03/30 07:31:50;;;;;;;9.02;3.50;;;15.10;49.80;;;;;;6279411;28;20360;-75
2021/03/30 07:34:57;;;;;;;12.93;3.13;;;15.20;49.60;;;;;;6268468;28;20033;-73
2021/03/30 07:38:11;;;;;;;7.25;3.15;;;15.30;49.40;;;;;;6271668;28;20035;-75
2021/03/30 07:41:18;;;;;;;5.68;2.85;;;15.40;49.10;;;;;;6284656;28;20035;-75
2021/03/30 07:44:20;;;;;;;8.63;3.40;;;15.60;49.00;;;;;;6272913;28;20036;-75
2021/03/30 07:47:22;;;;;;;13.98;4.25;;;15.80;48.80;;;;;;6277118;28;20033;-74
2021/03/30 07:50:43;;;;;;;7.78;3.28;;;16.10;48.50;;;;;;6253369;28;20039;-74
2021/03/30 07:53:55;;;;;;;11.75;3.45;;;16.30;48.20;;;;;;6265783;28;20040;-74
2021/03/30 07:56:56;;;;;;;8.52;3.70;;;16.40;47.80;;;;;;6277165;28;20020;-74
2021/03/30 07:59:57;;;;;;;9.60;3.15;;;16.60;47.60;;;;;;6260222;28;20390;-74
2021/03/30 08:03:26;;;;;;;8.27;3.65;;;16.70;47.40;;;;;;6252409;28;20069;-75
2021/03/30 08:06:46;;;;;;;7.40;2.60;;;16.90;47.00;;;;;;6234643;28;20039;-75
2021/03/30 08:10:39;;;;;;;5.70;2.72;;;17.10;46.50;;;;;;6266079;28;20021;-74
2021/03/30 08:13:58;;;;;;;11.50;3.22;;;17.20;45.80;;;;;;6188227;28;20093;-75
2021/03/30 08:17:01;;;;;;;11.02;3.20;;;17.40;45.20;;;;;;6193139;28;20030;-75
2021/03/30 08:20:06;;;;;;;9.15;3.10;;;17.60;44.90;;;;;;6201369;28;20050;-74
2021/03/30 08:23:11;;;;;;;11.90;3.08;;;17.80;44.20;;;;;;6211497;28;20042;-74
2021/03/30 08:26:17;;;;;;;8.25;3.00;;;17.80;43.60;;;;;;6198129;28;20034;-74
2021/03/30 08:29:24;;;;;;;9.20;2.83;;;17.90;42.90;;;;;;6200961;28;20057;-74
2021/03/30 08:32:27;;;;;;;16.63;3.13;;;18.10;42.20;;;;;;6193448;28;20105;-73
2021/03/30 08:35:29;;;;;;;9.70;3.17;;;18.10;42.30;;;;;;6203381;28;20464;-74
2021/03/30 08:38:44;;;;;;;15.48;3.85;;;18.30;42.40;;;;;;6177489;28;20030;-75
2021/03/30 08:41:49;;;;;;;10.00;3.35;;;18.40;42.40;;;;;;6177184;28;20154;-74
2021/03/30 08:44:59;;;;;;;14.25;2.70;;;18.50;41.90;;;;;;6177274;28;20018;-75
2021/03/30 08:48:12;;;;;;;13.43;3.13;;;18.70;41.40;;;;;;6187483;28;20041;-75
2021/03/30 08:51:15;;;;;;;9.68;4.50;;;18.80;41.30;;;;;;6259939;28;20120;-74
2021/03/30 08:54:17;;;;;;;7.07;3.20;;;18.90;40.90;;;;;;6275931;28;20131;-74
2021/03/30 08:57:30;;;;;;;10.10;4.45;;;19.00;40.70;;;;;;6275782;28;20378;-74
2021/03/30 09:00:31;;;;;;;12.93;5.78;;;19.20;40.40;;;;;;6259022;28;20052;-74
2021/03/30 09:03:32;;;;;;;17.63;6.60;;;19.40;40.00;;;;;;6257951;28;20049;-74
2021/03/30 09:06:42;;;;;;;12.90;4.63;;;19.60;39.80;;;;;;6268353;28;20131;-74
2021/03/30 09:09:43;;;;;;;11.02;4.28;;;19.70;39.70;;;;;;6272241;28;20025;-75
2021/03/30 09:12:46;;;;;;;9.35;2.95;;;19.80;39.40;;;;;;6266336;28;20072;-74
2021/03/30 09:15:47;;;;;;;11.75;2.90;;;19.90;38.90;;;;;;6242812;28;20032;-75
2021/03/30 09:18:48;;;;;;;4.95;2.90;;;19.90;38.60;;;;;;6270388;28;20021;-74
2021/03/30 09:21:54;;;;;;;11.38;2.83;;;20.00;38.30;;;;;;6275961;28;20167;-75
2021/03/30 09:25:37;;;;;;;9.90;3.10;;;20.10;38.30;;;;;;6257894;28;20519;-76
2021/03/30 09:28:27;;;;;;;5.68;2.35;;;20.20;37.80;;;;;;6262768;28;20102;-74
2021/03/30 09:31:28;;;;;;;7.93;3.05;;;20.30;37.50;;;;;;6250730;28;20032;-74
2021/03/30 09:34:29;;;;;;;10.27;3.00;;;20.40;37.20;;;;;;6251048;28;20029;-74
2021/03/30 09:37:45;;;;;;;11.35;2.58;;;20.50;36.90;;;;;;6258410;28;20146;-73
2021/03/30 09:40:46;;;;;;;8.38;3.85;;;20.50;36.90;;;;;;6287079;28;20039;-76
2021/03/30 09:43:47;;;;;;;16.27;6.53;;;20.70;36.70;;;;;;6266539;28;20025;-74
2021/03/30 09:46:51;;;;;;;13.65;3.42;;;20.80;36.40;;;;;;6251111;28;20525;-75
2021/03/30 09:49:53;;;;;;;12.50;4.22;;;20.80;35.60;;;;;;6255988;28;20024;-75
2021/03/30 09:53:04;;;;;;;16.40;7.72;;;20.90;35.60;;;;;;6292214;28;20064;-75
2021/03/30 09:56:05;;;;;;;9.73;3.97;;;21.00;35.50;;;;;;6276508;28;20048;-73
2021/03/30 09:59:06;;;;;;;19.30;3.70;;;21.10;35.20;;;;;;6249987;28;20032;-74
2021/03/30 10:02:07;;;;;;;24.40;7.43;;;21.10;35.00;;;;;;6267664;28;20490;-74
2021/03/30 10:05:10;;;;;;;17.00;4.18;;;21.20;35.10;;;;;;6255650;28;20028;-75
2021/03/30 10:08:19;;;;;;;19.13;5.45;;;21.30;34.70;;;;;;6292223;28;20020;-75
2021/03/30 10:11:27;;;;;;;15.05;6.65;;;21.30;34.50;;;;;;6292588;28;20055;-74
2021/03/30 10:14:28;;;;;;;9.55;4.03;;;21.40;34.40;;;;;;6261914;28;20067;-73
2021/03/30 10:17:32;;;;;;;10.15;3.00;;;21.40;34.40;;;;;;6275374;28;20415;-74
2021/03/30 10:20:44;;;;;;;7.68;2.40;;;21.60;34.40;;;;;;6255781;28;20037;-74
2021/03/30 10:23:49;;;;;;;12.23;4.40;;;21.70;34.00;;;;;;6267968;28;20071;-73
2021/03/30 10:27:03;;;;;;;10.35;2.75;;;21.80;33.10;;;;;;6269788;28;20050;-73
2021/03/30 10:30:06;;;;;;;5.80;2.40;;;21.90;33.20;;;;;;6274682;28;20029;-75
2021/03/30 10:33:11;;;;;;;7.85;2.40;;;22.00;32.90;;;;;;6250986;28;20523;-75
2021/03/30 10:36:15;;;;;;;10.30;3.70;;;22.10;32.60;;;;;;6251911;28;20359;-76
2021/03/30 10:39:16;;;;;;;11.13;4.07;;;22.20;32.10;;;;;;6250585;28;20033;-77
2021/03/30 10:42:19;;;;;;;16.60;7.72;;;22.30;31.70;;;;;;6274773;28;20025;-75
2021/03/30 10:45:29;;;;;;;12.70;6.15;;;22.60;31.50;;;;;;6237875;28;20044;-76
2021/03/30 10:48:30;;;;;;;10.65;4.90;;;23.00;31.50;;;;;;6267001;28;20116;-77
2021/03/30 10:51:33;;;;;;;12.57;4.13;;;23.40;31.00;;;;;;6250493;28;20443;-76
2021/03/30 10:54:34;;;;;;;11.13;3.53;;;23.90;30.60;;;;;;6272504;28;20056;-76
2021/03/30 10:57:39;;;;;;;16.52;4.07;;;24.30;30.20;;;;;;6262673;28;20648;-76
2021/03/30 11:00:41;;;;;;;4.60;2.28;;;24.70;29.90;;;;;;6263091;28;20132;-76
2021/03/30 11:03:42;;;;;;;12.95;4.47;;;25.10;29.50;;;;;;6253338;28;20404;-76
2021/03/30 11:06:46;;;;;;;20.20;3.05;;;25.40;28.70;;;;;;6278875;28;20559;-76
2021/03/30 11:09:46;;;;;;;17.15;2.50;;;25.60;28.30;;;;;;6265459;28;20046;-76
2021/03/30 11:12:48;;;;;;;12.05;2.83;;;25.90;28.30;;;;;;6277849;28;20439;-77
2021/03/30 11:15:50;;;;;;;8.95;2.60;;;26.20;27.80;;;;;;6244901;28;20029;-74
2021/03/30 11:18:52;;;;;;;14.98;3.92;;;26.40;27.40;;;;;;6271278;28;20032;-75
2021/03/30 11:21:53;;;;;;;8.23;2.50;;;26.70;27.50;;;;;;6278058;28;20443;-75
2021/03/30 11:24:59;;;;;;;8.57;2.30;;;26.90;27.30;;;;;;6277666;28;20025;-75
2021/03/30 11:28:05;;;;;;;4.40;1.85;;;27.20;27.10;;;;;;6278113;28;20625;-74
2021/03/30 11:31:11;;;;;;;11.18;1.98;;;27.30;26.50;;;;;;6278192;28;20025;-75
2021/03/30 11:37:51;;;;;;;6.28;1.70;;;27.50;25.80;;;;;;6171673;28;20035;-75
2021/03/30 11:40:52;;;;;;;3.10;1.67;;;27.70;25.50;;;;;;6167963;28;20508;-75
2021/03/30 11:43:53;;;;;;;10.50;2.22;;;28.00;25.40;;;;;;6167637;28;20046;-76
2021/03/30 11:46:54;;;;;;;4.78;1.90;;;28.30;25.30;;;;;;6188048;28;20488;-75
2021/03/30 11:49:55;;;;;;;6.80;2.10;;;28.50;24.50;;;;;;6178122;28;20492;-75
2021/03/30 11:52:56;;;;;;;2.20;1.60;;;28.90;24.40;;;;;;6170015;28;20046;-74
2021/03/30 11:55:57;;;;;;;6.63;3.00;;;29.10;23.90;;;;;;6188748;28;20034;-74
2021/03/30 11:58:59;;;;;;;9.30;2.05;;;29.40;23.80;;;;;;6177029;28;20041;-74
2021/03/30 12:02:00;;;;;;;6.07;1.80;;;29.60;23.50;;;;;;6176395;28;20038;-74
2021/03/30 12:05:01;;;;;;;4.50;1.83;;;29.80;23.20;;;;;;6169824;28;20035;-74
2021/03/30 12:08:02;;;;;;;14.30;1.92;;;30.10;22.80;;;;;;6185254;28;20031;-75
2021/03/30 12:11:04;;;;;;;9.90;1.67;;;30.40;22.60;;;;;;6163684;28;20023;-75
2021/03/30 12:14:05;;;;;;;4.95;1.48;;;31.00;22.30;;;;;;6236467;28;20102;-75
2021/03/30 12:17:06;;;;;;;5.30;1.92;;;31.40;21.50;;;;;;6253146;28;20028;-75
2021/03/30 12:20:08;;;;;;;4.90;1.85;;;31.70;21.00;;;;;;6259619;28;20424;-75
2021/03/30 12:23:09;;;;;;;13.68;2.20;;;32.00;20.80;;;;;;6269612;28;20029;-74
2021/03/30 12:26:10;;;;;;;5.05;2.10;;;32.30;20.70;;;;;;6252702;28;20043;-74
2021/03/30 12:29:11;;;;;;;8.25;1.63;;;32.90;20.60;;;;;;6259891;28;20466;-75
2021/03/30 12:32:12;;;;;;;20.38;8.32;;;33.40;20.20;;;;;;6259449;28;20228;-74
2021/03/30 12:35:13;;;;;;;2.53;1.75;;;34.00;20.00;;;;;;6275195;28;20028;-74
2021/03/30 12:38:15;;;;;;;6.82;1.70;;;34.60;19.60;;;;;;6268564;28;20457;-75
2021/03/30 12:41:16;;;;;;;10.43;2.03;;;35.30;19.10;;;;;;6269588;28;20384;-75
2021/03/30 12:44:18;;;;;;;4.32;2.08;;;35.70;18.90;;;;;;6241633;28;20029;-75
2021/03/30 12:47:19;;;;;;;10.65;2.10;;;36.30;18.50;;;;;;6269369;28;20035;-73
2021/03/30 12:50:25;;;;;;;5.15;1.92;;;36.60;18.30;;;;;;6260043;28;20360;-74
2021/03/30 12:53:27;;;;;;;6.35;2.00;;;37.00;18.20;;;;;;6276181;28;20052;-75
2021/03/30 12:56:28;;;;;;;14.23;2.40;;;37.60;17.90;;;;;;6269820;28;20115;-75
2021/03/30 12:59:29;;;;;;;10.40;1.98;;;38.20;17.30;;;;;;6243682;28;20029;-74
2021/03/30 13:02:30;;;;;;;9.68;1.70;;;38.60;16.80;;;;;;6267817;28;20593;-74
2021/03/30 13:05:31;;;;;;;5.43;1.95;;;39.00;16.50;;;;;;6277531;28;20410;-74
2021/03/30 13:08:32;;;;;;;4.97;1.70;;;39.40;16.20;;;;;;6252731;28;20037;-76
2021/03/30 13:11:33;;;;;;;3.22;1.77;;;39.80;15.90;;;;;;6276613;28;20469;-76
2021/03/30 13:14:34;;;;;;;17.73;2.15;;;40.00;15.50;;;;;;6257753;28;20039;-75
2021/03/30 13:17:35;;;;;;;10.02;2.00;;;40.30;15.30;;;;;;6270097;28;20051;-76
2021/03/30 13:20:36;;;;;;;6.22;1.98;;;40.40;15.20;;;;;;6283647;28;20276;-75
2021/03/30 13:23:37;;;;;;;7.88;2.72;;;40.50;15.10;;;;;;6269749;28;20086;-76
2021/03/30 13:26:38;;;;;;;6.55;2.00;;;40.70;15.00;;;;;;6293224;28;20498;-75
2021/03/30 13:29:41;;;;;;;3.95;1.75;;;40.80;14.90;;;;;;6292085;28;20028;-76
2021/03/30 13:32:42;;;;;;;4.10;1.45;;;41.00;14.80;;;;;;6252257;28;20040;-75
2021/03/30 13:35:43;;;;;;;2.40;1.30;;;41.00;14.50;;;;;;6276171;28;20032;-75
2021/03/30 13:38:43;;;;;;;4.60;1.90;;;40.80;14.30;;;;;;6275599;28;20123;-74
2021/03/30 13:41:50;;;;;;;5.05;1.95;;;40.70;14.30;;;;;;6268286;28;20041;-76
2021/03/30 13:44:51;;;;;;;3.65;1.52;;;40.80;14.40;;;;;;6275290;28;20642;-76
2021/03/30 13:47:52;;;;;;;6.75;1.83;;;40.70;14.20;;;;;;6276561;28;20025;-75
2021/03/30 13:50:53;;;;;;;9.18;2.30;;;40.00;14.50;;;;;;6248301;28;20031;-76
2021/03/30 13:53:54;;;;;;;3.03;1.83;;;38.60;15.30;;;;;;6292512;28;20021;-73
2021/03/30 13:56:56;;;;;;;3.83;1.77;;;37.20;16.10;;;;;;6270966;28;20528;-75
2021/03/30 13:59:57;;;;;;;9.45;1.67;;;35.90;16.80;;;;;;6270625;28;20037;-76
2021/03/30 14:02:57;;;;;;;8.60;2.28;;;34.60;17.40;;;;;;6267479;28;20079;-75
2021/03/30 14:05:58;;;;;;;3.85;1.63;;;33.70;18.10;;;;;;6251224;28;20029;-75
2021/03/30 14:09:00;;;;;;;3.08;1.80;;;32.80;18.90;;;;;;6267879;28;20033;-74
2021/03/30 14:12:04;;;;;;;5.03;1.70;;;32.00;19.40;;;;;;6257849;28;20025;-75
2021/03/30 14:15:13;;;;;;;3.92;1.92;;;31.40;19.90;;;;;;6258739;28;20480;-75
2021/03/30 14:21:40;;;;;;;9.75;2.10;;;30.30;20.80;;;;;;6292805;28;20073;-75
2021/03/30 14:25:00;;;;;;;5.45;1.73;;;29.90;21.30;;;;;;6265409;28;20037;-75
2021/03/30 14:28:01;;;;;;;8.05;1.90;;;29.60;21.50;;;;;;6252701;28;20025;-75
2021/03/30 14:31:02;;;;;;;8.30;2.08;;;29.30;21.90;;;;;;6261399;28;20040;-75
2021/03/30 14:34:03;;;;;;;3.38;1.90;;;29.10;22.50;;;;;;6251172;28;20035;-75
2021/03/30 14:37:05;;;;;;;5.30;1.80;;;28.90;23.10;;;;;;6281469;28;20238;-76
2021/03/30 14:43:26;;;;;;;7.18;2.67;;;28.50;23.90;;;;;;6273324;28;20103;-75
2021/03/30 14:53:10;;;;;;;2.92;1.90;;;28.10;24.10;;;;;;6297255;28;20066;-74
2021/03/30 14:56:35;;;;;;;5.72;2.30;;;28.00;24.30;;;;;;6279316;28;20048;-74
2021/03/30 14:59:41;;;;;;;15.05;5.57;;;28.00;24.50;;;;;;6262372;28;20480;-75
2021/03/30 15:06:02;;;;;;;4.25;1.90;;;27.90;24.80;;;;;;6290154;28;20025;-75
2021/03/30 15:09:03;;;;;;;7.95;2.10;;;27.80;24.90;;;;;;6271047;28;20112;-75
2021/03/30 15:12:09;;;;;;;4.93;1.95;;;27.80;24.90;;;;;;6250992;28;20021;-74
2021/03/30 15:15:10;;;;;;;10.23;2.20;;;27.80;25.40;;;;;;6271539;28;20025;-75
2021/03/30 15:18:12;;;;;;;5.35;2.00;;;27.70;24.90;;;;;;6254398;28;20431;-76
2021/03/30 15:21:13;;;;;;;9.20;1.85;;;27.60;25.00;;;;;;6265939;28;20422;-75
2021/03/30 15:24:15;;;;;;;9.98;1.65;;;27.70;25.00;;;;;;6254358;28;20074;-75
2021/03/30 15:27:16;;;;;;;6.00;2.00;;;27.70;24.90;;;;;;6278219;28;20147;-75
2021/03/30 15:30:18;;;;;;;5.75;2.70;;;27.70;24.90;;;;;;6276258;28;20033;-75
2021/03/30 15:33:19;;;;;;;4.05;1.83;;;27.70;24.90;;;;;;6271407;28;20043;-75
2021/03/30 15:36:21;;;;;;;7.88;2.83;;;27.60;24.90;;;;;;6267819;28;20044;-75
2021/03/30 15:39:22;;;;;;;4.88;2.40;;;27.60;25.00;;;;;;6254226;28;20308;-74
2021/03/30 15:42:23;;;;;;;3.65;2.05;;;27.60;25.10;;;;;;6253725;28;20025;-77
2021/03/30 15:48:34;;;;;;;4.88;2.00;;;27.60;25.30;;;;;;6280738;28;20029;-76
2021/03/30 15:51:35;;;;;;;3.88;2.10;;;27.60;25.30;;;;;;6277238;28;20028;-75
2021/03/30 15:58:02;;;;;;;5.80;1.95;;;27.60;25.50;;;;;;6193918;28;20046;-76
2021/03/30 16:01:03;;;;;;;3.63;1.80;;;27.60;25.50;;;;;;6193910;28;20495;-76
2021/03/30 16:04:04;;;;;;;6.18;1.98;;;27.60;25.60;;;;;;6177758;28;20043;-76
2021/03/30 16:07:06;;;;;;;5.07;2.00;;;27.60;25.70;;;;;;6179587;28;20150;-76
2021/03/30 16:10:07;;;;;;;5.75;1.73;;;27.60;25.70;;;;;;6195527;28;20041;-75
2021/03/30 16:13:08;;;;;;;4.90;2.38;;;27.70;26.30;;;;;;6174187;28;20042;-77
2021/03/30 16:16:09;;;;;;;5.47;2.00;;;27.70;25.80;;;;;;6184761;28;20034;-76
2021/03/30 16:19:10;;;;;;;7.32;2.10;;;27.80;25.70;;;;;;6193016;28;20470;-76
2021/03/30 16:22:12;;;;;;;3.55;1.95;;;28.00;25.70;;;;;;6201592;28;20100;-76
2021/03/30 16:25:14;;;;;;;6.70;2.08;;;28.40;25.80;;;;;;6199255;28;20037;-77
2021/03/30 16:28:18;;;;;;;9.20;2.33;;;28.70;25.20;;;;;;6193761;28;20034;-76